Time;durP1;ratioP1;P1;durP2;ratioP2;P2;SDS_P1;SDS_P2;PMS_P1;PMS_P2;Temp;Humidity;BMP_temperature;BMP_pressure;BME280_temperature;BME280_humidity;BME280_pressure;Samples;Min_cycle;Max_cycle;Signal;HPM_P1;HPM_P2
2023/05/28 00:08:07;;;;;;;28.23;18.70;;;15.90;99.90;;;;;;4875855;29;20133;-75
2023/05/28 00:10:32;;;;;;;21.13;16.25;;;15.90;99.90;;;;;;4881293;29;20033;-74
2023/05/28 00:12:58;;;;;;;15.07;8.32;;;15.80;99.90;;;;;;4865132;29;20097;-74
2023/05/28 00:15:24;;;;;;;14.30;8.02;;;15.80;99.90;;;;;;4863796;29;20036;-74
2023/05/28 00:17:52;;;;;;;13.93;7.22;;;15.80;99.90;;;;;;4881319;29;20025;-74
2023/05/28 00:20:19;;;;;;;19.40;10.45;;;15.80;99.90;;;;;;4881245;29;20029;-74
2023/05/28 00:22:45;;;;;;;15.00;8.43;;;15.80;99.90;;;;;;4881505;29;20017;-74
2023/05/28 00:25:12;;;;;;;14.38;8.25;;;15.80;99.90;;;;;;4880960;29;20489;-75
2023/05/28 00:27:37;;;;;;;12.55;7.05;;;15.80;99.90;;;;;;4881672;29;20052;-75
2023/05/28 00:30:04;;;;;;;15.75;7.70;;;15.80;99.90;;;;;;4864390;29;20117;-74
2023/05/28 00:32:29;;;;;;;13.57;7.22;;;15.80;99.90;;;;;;4881290;29;20525;-74
2023/05/28 00:34:55;;;;;;;18.95;7.20;;;15.80;99.90;;;;;;4880781;29;20069;-73
2023/05/28 00:37:21;;;;;;;11.73;7.13;;;15.80;99.90;;;;;;4880801;29;20040;-74
2023/05/28 00:39:47;;;;;;;17.27;8.20;;;15.80;99.90;;;;;;4879655;29;20034;-76
2023/05/28 00:42:14;;;;;;;14.20;7.75;;;15.90;99.90;;;;;;4879654;29;20043;-75
2023/05/28 00:44:41;;;;;;;14.57;8.32;;;15.80;99.90;;;;;;4879765;29;20070;-75
2023/05/28 00:47:07;;;;;;;14.90;7.53;;;15.90;99.90;;;;;;4880585;29;20544;-75
2023/05/28 00:49:33;;;;;;;15.23;9.05;;;15.80;99.90;;;;;;4864105;29;20083;-74
2023/05/28 00:52:01;;;;;;;16.20;8.05;;;15.90;99.90;;;;;;4880740;29;20108;-75
2023/05/28 00:54:27;;;;;;;13.55;6.65;;;15.90;99.90;;;;;;4880918;29;20036;-75
2023/05/28 00:56:54;;;;;;;16.70;7.47;;;15.90;99.90;;;;;;4880332;29;20041;-75
2023/05/28 00:59:21;;;;;;;15.32;7.10;;;15.90;99.90;;;;;;4879676;29;20039;-74
2023/05/28 01:01:47;;;;;;;12.05;7.15;;;15.90;99.90;;;;;;4880694;29;20218;-75
2023/05/28 01:04:13;;;;;;;12.05;7.72;;;15.90;99.90;;;;;;4880437;29;20534;-75
2023/05/28 01:06:40;;;;;;;16.13;8.32;;;15.80;99.90;;;;;;4880180;29;20067;-75
2023/05/28 01:09:06;;;;;;;16.10;7.43;;;15.80;99.90;;;;;;4878069;29;20497;-74
2023/05/28 01:11:33;;;;;;;12.63;7.28;;;15.90;99.90;;;;;;4863971;29;20092;-75
2023/05/28 01:13:59;;;;;;;12.98;7.65;;;15.90;99.90;;;;;;4879225;29;20385;-75
2023/05/28 01:16:28;;;;;;;13.13;7.68;;;15.80;99.90;;;;;;4863694;29;20033;-75
2023/05/28 01:18:55;;;;;;;11.68;7.57;;;15.90;99.90;;;;;;4877908;29;20033;-74
2023/05/28 01:21:25;;;;;;;17.48;9.00;;;15.90;99.90;;;;;;4858983;29;20037;-74
2023/05/28 01:23:52;;;;;;;14.88;8.48;;;15.80;99.90;;;;;;4869544;29;20041;-74
2023/05/28 01:26:18;;;;;;;14.13;8.48;;;15.80;99.90;;;;;;4877755;29;20041;-74
2023/05/28 01:28:48;;;;;;;14.45;8.82;;;15.80;99.90;;;;;;4863458;29;20036;-75
2023/05/28 01:31:15;;;;;;;18.45;9.15;;;15.80;99.90;;;;;;4863002;29;20033;-75
2023/05/28 01:33:42;;;;;;;13.85;7.97;;;15.80;99.90;;;;;;4873784;29;20028;-74
2023/05/28 01:36:28;;;;;;;14.30;8.18;;;15.80;99.90;;;;;;4846741;29;20037;-75
2023/05/28 01:38:58;;;;;;;13.18;7.68;;;15.80;99.90;;;;;;4868732;29;20423;-74
2023/05/28 01:41:28;;;;;;;14.27;9.10;;;15.80;99.90;;;;;;4863106;29;20068;-74
2023/05/28 01:43:54;;;;;;;13.25;8.25;;;15.80;99.90;;;;;;4862751;29;20029;-74
2023/05/28 01:46:21;;;;;;;15.73;8.68;;;15.90;99.90;;;;;;4878334;29;20064;-75
2023/05/28 01:48:49;;;;;;;15.75;8.25;;;15.80;99.90;;;;;;4861929;29;20067;-75
2023/05/28 01:51:20;;;;;;;16.40;8.45;;;15.80;99.90;;;;;;4876088;29;20033;-75
2023/05/28 01:53:46;;;;;;;12.65;8.38;;;15.80;99.90;;;;;;4878617;29;20362;-75
2023/05/28 01:56:12;;;;;;;12.60;7.45;;;15.80;99.90;;;;;;4876939;29;20055;-74
2023/05/28 01:58:38;;;;;;;16.67;7.88;;;15.80;99.90;;;;;;4877834;29;20026;-75
2023/05/28 02:01:28;;;;;;;16.00;8.35;;;15.80;99.90;;;;;;4860514;29;20484;-74
2023/05/28 02:04:00;;;;;;;14.27;7.40;;;15.90;99.90;;;;;;4862852;29;20029;-75
2023/05/28 02:06:27;;;;;;;13.57;7.72;;;15.80;99.90;;;;;;4878491;29;20045;-74
2023/05/28 02:08:53;;;;;;;12.40;7.78;;;15.90;99.90;;;;;;4879418;29;20033;-75
2023/05/28 02:11:19;;;;;;;12.43;7.30;;;15.90;99.90;;;;;;4879164;29;20120;-75
2023/05/28 02:13:46;;;;;;;13.43;8.50;;;15.80;99.90;;;;;;4871424;29;20116;-75
2023/05/28 02:16:17;;;;;;;13.85;7.45;;;15.80;99.90;;;;;;4861282;29;20141;-74
2023/05/28 02:18:44;;;;;;;18.45;8.00;;;15.90;99.90;;;;;;4876487;29;20116;-74
2023/05/28 02:21:11;;;;;;;17.73;8.80;;;15.80;99.90;;;;;;4860871;29;20035;-74
2023/05/28 02:23:45;;;;;;;14.57;8.18;;;15.80;99.90;;;;;;4862688;29;20029;-76
2023/05/28 02:26:11;;;;;;;14.68;8.13;;;15.90;99.90;;;;;;4875398;29;20040;-75
2023/05/28 02:28:37;;;;;;;15.93;8.15;;;15.90;99.90;;;;;;4860783;29;20504;-74
2023/05/28 02:31:03;;;;;;;12.00;6.65;;;15.90;99.90;;;;;;4859023;29;20033;-74
2023/05/28 02:33:29;;;;;;;23.70;7.90;;;15.90;99.90;;;;;;4876095;29;20040;-74
2023/05/28 02:35:55;;;;;;;14.18;8.38;;;15.90;99.90;;;;;;4863289;29;20552;-74
2023/05/28 02:38:21;;;;;;;13.77;8.02;;;16.00;99.90;;;;;;4862009;29;20041;-74
2023/05/28 02:40:47;;;;;;;14.95;8.50;;;16.00;99.90;;;;;;4860982;29;20077;-74
2023/05/28 02:43:13;;;;;;;16.70;8.43;;;15.90;99.90;;;;;;4876307;29;20029;-75
2023/05/28 02:45:39;;;;;;;16.02;7.93;;;15.90;99.90;;;;;;4863954;29;20123;-74
2023/05/28 02:48:05;;;;;;;17.00;7.18;;;15.90;99.90;;;;;;4860524;29;20032;-74
2023/05/28 02:50:31;;;;;;;12.93;7.78;;;15.90;99.90;;;;;;4862284;29;20039;-74
2023/05/28 02:53:23;;;;;;;13.68;7.43;;;15.90;99.90;;;;;;4872999;29;20040;-74
2023/05/28 02:55:50;;;;;;;15.75;8.10;;;15.90;99.90;;;;;;4860645;29;20040;-74
2023/05/28 02:58:16;;;;;;;16.13;8.70;;;15.90;99.90;;;;;;4875962;29;20055;-75
2023/05/28 03:00:42;;;;;;;12.60;7.70;;;15.90;99.90;;;;;;4875830;29;20041;-74
2023/05/28 03:03:09;;;;;;;12.52;7.30;;;15.90;99.90;;;;;;4862162;29;20795;-74
2023/05/28 03:05:35;;;;;;;13.02;7.70;;;15.90;99.90;;;;;;4860964;29;20048;-74
2023/05/28 03:08:02;;;;;;;13.63;8.18;;;15.90;99.90;;;;;;4860095;29;20048;-74
2023/05/28 03:10:28;;;;;;;13.15;8.10;;;16.00;99.90;;;;;;4860521;29;20454;-74
2023/05/28 03:12:54;;;;;;;14.55;7.82;;;15.90;99.90;;;;;;4877014;29;20060;-74
2023/05/28 03:15:20;;;;;;;16.52;8.05;;;15.90;99.90;;;;;;4875685;29;20040;-74
2023/05/28 03:17:46;;;;;;;16.63;8.25;;;15.90;99.90;;;;;;4877184;29;20040;-73
2023/05/28 03:20:12;;;;;;;13.25;8.30;;;15.90;99.90;;;;;;4875674;29;20037;-74
2023/05/28 03:22:38;;;;;;;14.23;8.25;;;15.90;99.90;;;;;;4860184;29;20136;-75
2023/05/28 03:25:08;;;;;;;14.40;8.40;;;15.90;99.90;;;;;;4875408;29;20032;-75
2023/05/28 03:27:35;;;;;;;13.80;8.60;;;15.90;99.90;;;;;;4862996;29;20037;-75
2023/05/28 03:30:01;;;;;;;11.32;7.20;;;15.90;99.90;;;;;;4860170;29;20044;-75
2023/05/28 03:32:43;;;;;;;15.18;8.32;;;15.90;99.90;;;;;;4861374;29;20043;-74
2023/05/28 03:35:09;;;;;;;12.27;7.70;;;15.90;99.90;;;;;;4866400;29;20076;-75
2023/05/28 03:37:35;;;;;;;16.92;8.25;;;15.90;99.90;;;;;;4867327;29;20029;-74
2023/05/28 03:40:04;;;;;;;14.00;7.60;;;15.90;99.90;;;;;;4868715;29;20040;-75
2023/05/28 03:42:30;;;;;;;20.25;8.23;;;15.90;99.90;;;;;;4863039;29;20025;-75
2023/05/28 03:44:56;;;;;;;18.05;7.35;;;15.90;99.90;;;;;;4866090;29;20560;-75
2023/05/28 03:47:22;;;;;;;14.27;7.70;;;16.00;99.90;;;;;;4882926;29;20172;-75
2023/05/28 03:49:48;;;;;;;16.27;8.30;;;16.00;99.90;;;;;;4866141;29;20044;-75
2023/05/28 03:52:14;;;;;;;13.25;7.30;;;16.00;99.90;;;;;;4866081;29;20472;-75
2023/05/28 03:54:48;;;;;;;19.00;9.13;;;16.00;99.90;;;;;;4881474;29;20099;-75
2023/05/28 03:57:14;;;;;;;13.80;7.97;;;16.00;99.90;;;;;;4881620;29;20025;-75
2023/05/28 03:59:40;;;;;;;13.45;8.02;;;16.00;99.90;;;;;;4868305;29;20085;-73
2023/05/28 04:02:06;;;;;;;14.18;8.50;;;16.00;99.90;;;;;;4881682;29;20029;-75
2023/05/28 04:04:32;;;;;;;15.82;7.60;;;15.90;99.90;;;;;;4866176;29;20029;-75
2023/05/28 04:06:58;;;;;;;13.20;8.10;;;16.00;99.90;;;;;;4865366;29;20071;-74
2023/05/28 04:09:24;;;;;;;14.88;8.98;;;16.00;99.90;;;;;;4869562;29;20028;-74
2023/05/28 04:11:50;;;;;;;13.55;8.60;;;16.00;99.90;;;;;;4866304;29;20473;-74
2023/05/28 04:14:18;;;;;;;15.20;7.90;;;16.10;99.90;;;;;;4882806;29;20013;-74
2023/05/28 04:16:44;;;;;;;15.95;7.55;;;16.10;99.90;;;;;;4865666;29;20041;-74
2023/05/28 04:19:11;;;;;;;14.77;8.32;;;16.10;99.90;;;;;;4882741;29;20072;-75
2023/05/28 04:21:37;;;;;;;14.55;9.15;;;16.20;99.90;;;;;;4881244;29;20052;-74
2023/05/28 04:24:03;;;;;;;11.80;7.38;;;16.20;99.90;;;;;;4882716;29;20036;-74
2023/05/28 04:26:31;;;;;;;19.13;8.13;;;16.20;99.90;;;;;;4882670;29;20094;-74
2023/05/28 04:28:59;;;;;;;15.43;8.23;;;16.20;99.90;;;;;;4878638;29;20020;-75
2023/05/28 04:31:27;;;;;;;13.95;7.35;;;16.30;99.90;;;;;;4865780;29;20112;-75
2023/05/28 04:33:53;;;;;;;12.27;7.65;;;16.20;99.90;;;;;;4865717;29;20199;-75
2023/05/28 04:36:19;;;;;;;14.80;8.23;;;16.20;99.90;;;;;;4865636;29;20041;-74
2023/05/28 04:38:46;;;;;;;16.30;8.35;;;16.30;99.90;;;;;;4865622;29;20580;-75
2023/05/28 04:41:14;;;;;;;18.02;7.47;;;16.30;99.90;;;;;;4866802;29;20117;-75
2023/05/28 04:43:41;;;;;;;17.88;8.05;;;16.30;99.90;;;;;;4862869;29;20033;-74
2023/05/28 04:46:08;;;;;;;14.68;8.10;;;16.30;99.90;;;;;;4865902;29;20068;-74
2023/05/28 04:48:37;;;;;;;15.10;8.10;;;16.40;99.90;;;;;;4862673;29;20029;-74
2023/05/28 04:51:05;;;;;;;14.25;8.63;;;16.40;99.90;;;;;;4850227;29;20101;-74
2023/05/28 04:53:31;;;;;;;14.07;7.45;;;16.50;99.90;;;;;;4870715;29;20040;-75
2023/05/28 04:55:59;;;;;;;15.77;9.02;;;16.60;99.90;;;;;;4863865;29;20033;-74
2023/05/28 04:58:25;;;;;;;12.55;7.45;;;16.60;99.90;;;;;;4880955;29;20112;-75
2023/05/28 05:00:55;;;;;;;15.98;8.55;;;16.70;99.90;;;;;;4863741;29;20438;-74
2023/05/28 05:03:21;;;;;;;16.45;8.90;;;16.70;99.90;;;;;;4864110;29;20120;-75
2023/05/28 05:05:47;;;;;;;16.80;9.05;;;16.70;99.90;;;;;;4863426;29;20116;-75
2023/05/28 05:08:13;;;;;;;18.45;8.30;;;16.80;99.90;;;;;;4862713;29;20537;-75
2023/05/28 05:10:41;;;;;;;13.52;7.90;;;16.90;99.90;;;;;;4876612;29;20080;-75
2023/05/28 05:13:08;;;;;;;13.27;8.27;;;16.90;99.90;;;;;;4877410;29;20053;-75
2023/05/28 05:15:34;;;;;;;14.15;7.75;;;16.90;99.90;;;;;;4879402;29;20076;-75
2023/05/28 05:18:00;;;;;;;18.70;8.40;;;17.00;99.90;;;;;;4863150;29;20077;-74
2023/05/28 05:20:27;;;;;;;16.73;8.75;;;17.00;99.90;;;;;;4873466;29;20033;-74
2023/05/28 05:22:53;;;;;;;15.32;8.15;;;17.10;99.90;;;;;;4878836;29;20076;-74
2023/05/28 05:25:19;;;;;;;16.15;8.02;;;17.20;99.90;;;;;;4872352;29;20041;-74
2023/05/28 05:27:51;;;;;;;16.50;7.97;;;17.10;99.90;;;;;;4864061;29;20037;-75
2023/05/28 05:30:17;;;;;;;15.40;8.25;;;17.20;99.90;;;;;;4864348;29;20524;-75
2023/05/28 05:32:44;;;;;;;13.73;8.00;;;17.20;99.90;;;;;;4879955;29;20085;-74
2023/05/28 05:35:12;;;;;;;14.60;8.32;;;17.20;99.90;;;;;;4864924;29;20513;-74
2023/05/28 05:37:41;;;;;;;18.60;8.57;;;17.20;99.90;;;;;;4861771;29;20486;-74
2023/05/28 05:40:22;;;;;;;16.73;8.88;;;17.20;99.90;;;;;;4875389;29;20049;-74
2023/05/28 05:42:54;;;;;;;13.30;7.47;;;17.20;99.90;;;;;;4879373;29;20041;-75
2023/05/28 05:45:21;;;;;;;18.35;8.90;;;17.30;99.90;;;;;;4863450;29;20072;-74
2023/05/28 05:47:47;;;;;;;14.50;7.90;;;17.30;99.90;;;;;;4861434;29;20028;-75
2023/05/28 05:50:13;;;;;;;14.68;7.57;;;17.30;99.90;;;;;;4875941;29;20450;-75
2023/05/28 05:52:40;;;;;;;12.73;7.47;;;17.40;99.90;;;;;;4876583;29;20021;-75
2023/05/28 05:55:08;;;;;;;15.73;8.25;;;17.40;99.90;;;;;;4877304;29;20088;-74
2023/05/28 05:57:36;;;;;;;15.75;7.72;;;17.50;99.90;;;;;;4862824;29;20033;-75
2023/05/28 06:00:05;;;;;;;16.83;8.00;;;17.60;99.90;;;;;;4878573;29;20032;-74
2023/05/28 06:02:39;;;;;;;13.10;8.07;;;17.60;99.90;;;;;;4880199;29;20059;-75
2023/05/28 06:05:23;;;;;;;17.08;8.73;;;17.70;99.90;;;;;;4861881;29;20072;-74
2023/05/28 06:08:24;;;;;;;16.20;8.10;;;17.80;99.90;;;;;;4839135;29;20110;-75
2023/05/28 06:11:02;;;;;;;16.63;7.30;;;17.90;99.90;;;;;;4828156;29;20042;-75
2023/05/28 06:13:28;;;;;;;15.43;8.48;;;18.00;99.90;;;;;;4837441;29;20201;-75
2023/05/28 06:15:54;;;;;;;15.57;7.45;;;18.20;99.90;;;;;;4825074;29;20042;-75
2023/05/28 06:18:21;;;;;;;12.57;7.28;;;18.10;99.90;;;;;;4839283;29;20041;-74
2023/05/28 06:20:49;;;;;;;15.70;7.15;;;18.20;99.90;;;;;;4824061;29;20553;-75
2023/05/28 06:23:16;;;;;;;13.38;7.00;;;18.20;99.90;;;;;;4822519;29;20445;-75
2023/05/28 06:25:43;;;;;;;13.60;6.97;;;18.30;99.90;;;;;;4823492;29;20034;-75
2023/05/28 06:28:10;;;;;;;14.52;7.72;;;18.30;99.90;;;;;;4825706;29;20124;-75
2023/05/28 06:30:36;;;;;;;19.60;7.85;;;18.30;99.90;;;;;;4825099;29;20029;-76
2023/05/28 06:33:03;;;;;;;14.43;6.72;;;18.40;99.90;;;;;;4825208;29;20060;-75
2023/05/28 06:35:29;;;;;;;11.40;6.88;;;18.40;99.90;;;;;;4828166;29;20124;-75
2023/05/28 06:37:55;;;;;;;15.63;7.18;;;18.40;99.90;;;;;;4821535;29;20186;-76
2023/05/28 06:40:22;;;;;;;14.63;6.47;;;18.40;99.90;;;;;;4839882;29;20033;-76
2023/05/28 06:42:48;;;;;;;13.88;6.90;;;18.40;99.90;;;;;;4840644;23;20319;-77
2023/05/28 06:45:35;;;;;;;13.45;6.50;;;18.30;99.90;;;;;;4877009;29;20045;-75
2023/05/28 06:48:03;;;;;;;12.30;6.15;;;18.40;99.90;;;;;;4862827;29;20052;-76
2023/05/28 06:50:29;;;;;;;20.42;6.20;;;18.40;99.90;;;;;;4860091;29;20034;-77
2023/05/28 06:52:56;;;;;;;12.77;6.00;;;18.40;99.90;;;;;;4863111;29;20503;-78
2023/05/28 06:55:22;;;;;;;10.63;6.15;;;18.40;99.90;;;;;;4862947;29;20068;-77
2023/05/28 06:58:06;;;;;;;11.48;5.97;;;18.40;99.90;;;;;;4844407;29;20044;-75
2023/05/28 07:00:52;;;;;;;13.25;5.97;;;18.50;99.90;;;;;;4865186;29;20425;-75
2023/05/28 07:03:25;;;;;;;11.40;6.35;;;18.70;99.90;;;;;;4857407;29;20112;-75
2023/05/28 07:06:11;;;;;;;15.20;6.38;;;18.80;99.90;;;;;;4847029;29;20041;-77
2023/05/28 07:08:40;;;;;;;12.77;5.88;;;19.00;99.90;;;;;;4844114;29;20085;-76
2023/05/28 07:11:08;;;;;;;15.98;6.63;;;19.00;99.90;;;;;;4858867;29;20029;-75
2023/05/28 07:13:34;;;;;;;15.60;6.50;;;19.10;99.90;;;;;;4861497;29;20037;-78
2023/05/28 07:16:00;;;;;;;11.38;6.68;;;19.30;99.90;;;;;;4857111;29;20438;-78
2023/05/28 07:18:26;;;;;;;13.38;5.95;;;19.50;99.90;;;;;;4861829;29;20029;-77
2023/05/28 07:20:52;;;;;;;14.50;6.10;;;19.70;99.90;;;;;;4877992;29;20116;-75
2023/05/28 07:23:26;;;;;;;18.55;5.85;;;19.70;99.90;;;;;;4892599;29;20080;-78
2023/05/28 07:25:53;;;;;;;14.82;5.88;;;19.90;99.90;;;;;;4876826;29;20039;-75
2023/05/28 07:28:19;;;;;;;13.40;6.10;;;20.00;99.90;;;;;;4861645;29;20041;-75
2023/05/28 07:30:45;;;;;;;12.15;5.90;;;20.20;99.90;;;;;;4876867;29;20125;-79
2023/05/28 07:33:12;;;;;;;13.02;5.97;;;20.20;99.90;;;;;;4860758;29;20069;-77
2023/05/28 07:35:38;;;;;;;11.73;5.93;;;20.20;99.90;;;;;;4861213;29;20522;-78
2023/05/28 07:38:04;;;;;;;10.50;5.68;;;20.20;99.90;;;;;;4861109;29;20073;-74
2023/05/28 07:40:30;;;;;;;14.02;6.30;;;20.00;99.90;;;;;;4877651;29;20084;-79
2023/05/28 07:43:04;;;;;;;10.98;5.57;;;20.10;99.90;;;;;;4860476;29;20520;-76
2023/05/28 07:45:29;;;;;;;11.77;6.15;;;20.20;99.90;;;;;;4861538;29;20041;-76
2023/05/28 07:47:56;;;;;;;10.35;6.47;;;20.20;99.90;;;;;;4861221;29;20097;-76
2023/05/28 07:50:44;;;;;;;11.07;6.63;;;20.30;99.90;;;;;;4863132;29;20032;-76
2023/05/28 07:53:40;;;;;;;10.98;5.90;;;20.30;99.90;;;;;;4869052;29;20043;-74
2023/05/28 07:56:09;;;;;;;10.90;5.97;;;20.50;99.90;;;;;;4867421;29;20026;-73
2023/05/28 07:58:36;;;;;;;14.05;6.70;;;20.20;99.90;;;;;;4861329;29;20385;-78
2023/05/28 08:01:08;;;;;;;12.50;6.22;;;20.30;99.90;;;;;;4861692;29;20475;-79
2023/05/28 08:03:36;;;;;;;13.40;5.80;;;20.20;99.90;;;;;;4877277;29;20040;-80
2023/05/28 08:06:03;;;;;;;12.88;6.65;;;20.40;99.90;;;;;;4860695;29;20041;-75
2023/05/28 08:08:29;;;;;;;10.70;5.88;;;20.50;99.90;;;;;;4866549;29;20090;-80
2023/05/28 08:10:55;;;;;;;12.93;5.78;;;20.60;99.90;;;;;;4854337;29;20059;-79
2023/05/28 08:13:21;;;;;;;16.98;6.28;;;20.50;99.90;;;;;;4878125;29;20061;-74
2023/05/28 08:15:48;;;;;;;10.25;5.88;;;20.60;99.90;;;;;;4860969;29;20033;-78
2023/05/28 08:18:15;;;;;;;12.65;5.85;;;20.60;99.90;;;;;;4856566;29;20132;-80
2023/05/28 08:20:45;;;;;;;12.57;5.22;;;20.80;99.90;;;;;;4849428;29;20036;-73
2023/05/28 08:23:15;;;;;;;13.65;5.18;;;20.80;99.90;;;;;;4865498;29;20025;-78
2023/05/28 08:25:42;;;;;;;12.00;5.30;;;20.90;99.90;;;;;;4853788;29;20030;-77
2023/05/28 08:28:17;;;;;;;14.10;5.30;;;20.90;99.90;;;;;;4861312;29;20067;-79
2023/05/28 08:30:44;;;;;;;14.93;5.95;;;20.90;99.90;;;;;;4852240;29;20125;-76
2023/05/28 08:33:20;;;;;;;22.95;6.53;;;21.10;99.90;;;;;;4861005;29;20082;-78
2023/05/28 08:35:47;;;;;;;11.05;4.63;;;21.10;99.90;;;;;;4861682;29;20045;-80
2023/05/28 08:38:14;;;;;;;9.63;5.20;;;20.80;99.90;;;;;;4871051;29;20120;-80
2023/05/28 08:40:55;;;;;;;13.05;6.63;;;21.00;99.90;;;;;;4863935;29;20378;-80
2023/05/28 08:43:22;;;;;;;15.27;5.70;;;20.90;99.90;;;;;;4846060;29;20045;-81
2023/05/28 08:45:52;;;;;;;13.43;5.95;;;20.90;99.90;;;;;;4867621;29;20137;-82
2023/05/28 08:48:21;;;;;;;14.63;5.75;;;21.00;99.90;;;;;;4852034;29;20029;-80
2023/05/28 08:50:50;;;;;;;11.85;5.88;;;21.20;99.90;;;;;;4887683;29;20021;-79
2023/05/28 08:53:24;;;;;;;10.30;5.13;;;21.00;99.90;;;;;;4860490;29;20055;-82
2023/05/28 08:55:51;;;;;;;10.82;5.15;;;21.20;99.90;;;;;;4864188;29;20043;-82
2023/05/28 08:58:20;;;;;;;14.20;5.82;;;21.30;99.90;;;;;;4863249;29;20033;-78
2023/05/28 09:00:48;;;;;;;8.45;4.43;;;21.40;99.90;;;;;;4878623;29;20502;-78
2023/05/28 09:03:35;;;;;;;10.65;5.25;;;21.20;99.90;;;;;;4878930;29;20073;-81
2023/05/28 09:06:12;;;;;;;12.80;5.22;;;21.30;99.90;;;;;;4863513;29;20041;-79
2023/05/28 09:08:38;;;;;;;10.95;4.97;;;21.50;99.90;;;;;;4880472;29;20049;-79
2023/05/28 09:11:12;;;;;;;14.25;4.53;;;21.40;99.90;;;;;;4879087;29;20065;-76
2023/05/28 09:13:45;;;;;;;12.45;4.55;;;21.50;99.90;;;;;;4881014;29;20174;-77
2023/05/28 09:16:21;;;;;;;12.85;5.13;;;21.50;99.90;;;;;;4863901;29;20033;-81
2023/05/28 09:18:52;;;;;;;9.48;4.68;;;21.40;99.90;;;;;;4879272;29;20044;-80
2023/05/28 09:21:19;;;;;;;9.57;4.30;;;21.60;99.90;;;;;;4863961;29;20097;-80
2023/05/28 09:23:52;;;;;;;11.32;4.53;;;21.30;99.90;;;;;;4880147;29;20096;-77
2023/05/28 09:26:39;;;;;;;12.77;4.90;;;21.30;99.90;;;;;;4870630;29;20128;-79
2023/05/28 09:29:27;;;;;;;12.88;5.00;;;21.30;99.90;;;;;;4878569;29;20025;-80
2023/05/28 09:32:00;;;;;;;11.82;4.95;;;21.80;99.90;;;;;;4880387;29;20033;-76
2023/05/28 09:34:30;;;;;;;10.70;5.10;;;21.90;99.90;;;;;;4880554;29;20039;-77
2023/05/28 09:37:01;;;;;;;9.70;4.43;;;21.70;99.90;;;;;;4879702;29;20400;-79
2023/05/28 09:39:27;;;;;;;9.57;4.72;;;21.70;99.90;;;;;;4880139;29;20037;-76
2023/05/28 09:42:05;;;;;;;10.52;5.43;;;21.50;99.90;;;;;;4863940;29;20029;-79
2023/05/28 09:44:32;;;;;;;14.40;5.57;;;21.60;99.90;;;;;;4879887;29;20112;-77
2023/05/28 09:46:59;;;;;;;11.23;5.22;;;21.50;99.90;;;;;;4880260;29;20135;-77
2023/05/28 09:49:29;;;;;;;10.30;4.72;;;21.60;99.90;;;;;;4880923;29;20492;-78
2023/05/28 09:51:58;;;;;;;11.48;5.18;;;21.50;99.90;;;;;;4881790;29;20059;-79
2023/05/28 09:54:29;;;;;;;12.48;5.03;;;21.60;99.90;;;;;;4880319;29;20021;-76
2023/05/28 09:56:58;;;;;;;12.07;4.07;;;21.80;99.90;;;;;;4879675;29;20045;-79
2023/05/28 09:59:26;;;;;;;12.45;4.93;;;21.90;99.90;;;;;;4879826;29;20021;-74
2023/05/28 10:01:59;;;;;;;9.25;4.57;;;21.90;99.90;;;;;;4881172;29;20036;-75
2023/05/28 10:04:33;;;;;;;10.02;4.57;;;22.00;99.90;;;;;;4863447;29;20029;-76
2023/05/28 10:06:59;;;;;;;11.18;4.63;;;21.90;99.90;;;;;;4879913;29;20047;-79
2023/05/28 10:09:26;;;;;;;10.25;4.90;;;21.60;99.90;;;;;;4878953;29;20074;-77
2023/05/28 10:12:05;;;;;;;9.85;4.40;;;21.70;99.90;;;;;;4880228;29;20029;-76
2023/05/28 10:14:32;;;;;;;12.07;4.95;;;21.90;99.90;;;;;;4863155;29;20507;-75
2023/05/28 10:16:59;;;;;;;13.40;4.25;;;21.70;99.90;;;;;;4879776;29;20032;-75
2023/05/28 10:19:26;;;;;;;13.02;5.88;;;21.70;99.90;;;;;;4881248;29;20477;-76
2023/05/28 10:21:53;;;;;;;12.57;5.75;;;21.90;99.90;;;;;;4879923;29;20141;-77
2023/05/28 10:24:20;;;;;;;12.45;4.90;;;21.90;99.90;;;;;;4879943;29;20759;-77
2023/05/28 10:26:46;;;;;;;12.52;4.90;;;22.00;99.90;;;;;;4881744;29;20060;-76
2023/05/28 10:29:12;;;;;;;11.95;4.95;;;22.20;99.90;;;;;;4877937;29;20057;-77
2023/05/28 10:31:37;;;;;;;10.60;5.03;;;22.30;99.90;;;;;;4878878;29;20439;-78
2023/05/28 10:34:15;;;;;;;11.85;5.20;;;22.30;99.90;;;;;;4879363;29;20039;-76
2023/05/28 10:36:53;;;;;;;8.32;4.50;;;22.20;99.90;;;;;;4876677;29;20061;-75
2023/05/28 10:39:19;;;;;;;14.25;4.82;;;22.40;99.90;;;;;;4879102;29;20041;-78
2023/05/28 10:41:45;;;;;;;11.88;4.47;;;22.20;99.90;;;;;;4873583;29;20104;-78
2023/05/28 10:44:11;;;;;;;13.70;5.75;;;22.30;99.90;;;;;;4875231;29;20409;-79
2023/05/28 10:46:38;;;;;;;9.27;4.47;;;22.30;99.90;;;;;;4881347;29;20044;-77
2023/05/28 10:49:07;;;;;;;9.30;5.20;;;22.40;99.90;;;;;;4864192;29;20411;-78
2023/05/28 10:51:45;;;;;;;11.25;5.30;;;22.50;99.90;;;;;;4878843;29;20500;-78
2023/05/28 10:54:23;;;;;;;10.70;4.50;;;22.20;99.90;;;;;;4874496;29;20033;-78
2023/05/28 10:57:10;;;;;;;8.13;4.82;;;22.30;99.90;;;;;;4879370;29;20033;-79
2023/05/28 10:59:46;;;;;;;13.40;5.95;;;22.20;99.90;;;;;;4878939;29;20086;-79
2023/05/28 11:02:22;;;;;;;12.23;5.07;;;22.30;99.90;;;;;;4865083;29;20121;-78
2023/05/28 11:04:54;;;;;;;13.77;5.55;;;22.30;99.90;;;;;;4869957;29;20149;-76
2023/05/28 11:07:21;;;;;;;12.05;5.45;;;22.30;99.90;;;;;;4878166;29;20052;-77
2023/05/28 11:09:49;;;;;;;14.75;6.28;;;22.10;99.90;;;;;;4878597;29;20032;-78
2023/05/28 11:12:15;;;;;;;11.57;5.40;;;22.10;99.90;;;;;;4878116;29;20029;-76
2023/05/28 11:14:41;;;;;;;12.77;5.32;;;22.10;99.90;;;;;;4877134;29;20540;-80
2023/05/28 11:17:09;;;;;;;16.38;5.63;;;22.10;99.90;;;;;;4878587;29;20033;-78
2023/05/28 11:19:44;;;;;;;14.70;5.88;;;22.20;99.90;;;;;;4869659;29;20465;-76
2023/05/28 11:22:10;;;;;;;14.23;6.32;;;22.40;99.90;;;;;;4876110;29;20128;-76
2023/05/28 11:24:55;;;;;;;11.63;5.30;;;22.30;99.90;;;;;;4879181;29;20037;-78
2023/05/28 11:27:25;;;;;;;13.27;5.30;;;22.40;99.90;;;;;;4881032;29;20037;-76
2023/05/28 11:29:56;;;;;;;12.38;6.35;;;22.50;99.90;;;;;;4877821;29;20115;-77
2023/05/28 11:32:23;;;;;;;13.65;5.78;;;22.60;99.90;;;;;;4879330;29;20025;-78
2023/05/28 11:34:50;;;;;;;11.55;5.40;;;22.60;99.90;;;;;;4879656;29;20032;-79
2023/05/28 11:37:16;;;;;;;17.10;7.00;;;22.70;99.90;;;;;;4883383;29;20033;-75
2023/05/28 11:39:50;;;;;;;12.20;5.60;;;22.70;99.90;;;;;;4872532;29;20037;-78
2023/05/28 11:42:20;;;;;;;11.48;5.43;;;22.70;99.90;;;;;;4877449;29;20060;-75
2023/05/28 11:44:47;;;;;;;11.02;6.43;;;22.60;99.90;;;;;;4877803;29;20060;-77
2023/05/28 11:47:13;;;;;;;13.90;5.72;;;22.40;99.90;;;;;;4891019;29;20067;-77
2023/05/28 11:49:41;;;;;;;15.40;5.85;;;22.50;99.90;;;;;;4879876;29;20025;-77
2023/05/28 11:52:15;;;;;;;11.20;5.90;;;22.70;99.90;;;;;;4872902;29;20029;-78
2023/05/28 11:54:42;;;;;;;14.25;5.95;;;22.60;99.90;;;;;;4875643;29;20042;-79
2023/05/28 11:57:09;;;;;;;11.80;5.70;;;22.60;99.90;;;;;;4865187;29;20028;-79
2023/05/28 11:59:36;;;;;;;12.43;5.90;;;22.70;99.90;;;;;;4881579;29;20486;-78
2023/05/28 12:02:13;;;;;;;10.38;5.63;;;22.70;99.90;;;;;;4884026;29;20085;-77
2023/05/28 12:04:39;;;;;;;31.65;18.85;;;22.60;99.90;;;;;;4880389;29;20025;-78
2023/05/28 12:07:05;;;;;;;15.32;7.20;;;22.80;99.90;;;;;;4879949;29;20060;-78
2023/05/28 12:09:32;;;;;;;15.73;7.68;;;22.90;99.90;;;;;;4879605;29;20025;-77
2023/05/28 12:12:02;;;;;;;15.60;5.93;;;22.80;99.90;;;;;;4887684;29;20060;-79
2023/05/28 12:14:31;;;;;;;12.45;6.15;;;22.80;99.90;;;;;;4882564;29;20051;-76
2023/05/28 12:17:08;;;;;;;10.38;5.60;;;22.90;99.90;;;;;;4877046;29;20508;-77
2023/05/28 12:19:35;;;;;;;12.73;6.28;;;23.00;99.90;;;;;;4891168;29;20041;-77
2023/05/28 12:22:02;;;;;;;9.60;5.13;;;22.90;99.90;;;;;;4878852;29;20077;-75
2023/05/28 12:24:29;;;;;;;16.67;6.70;;;22.90;99.90;;;;;;4851435;29;20029;-78
2023/05/28 12:26:54;;;;;;;15.60;5.95;;;22.90;99.90;;;;;;4862420;29;20087;-77
2023/05/28 12:29:20;;;;;;;15.02;6.60;;;22.90;99.90;;;;;;4860582;29;20080;-78
2023/05/28 12:31:46;;;;;;;15.32;6.10;;;22.90;99.90;;;;;;4874018;29;20032;-76
2023/05/28 12:34:12;;;;;;;13.48;5.93;;;23.00;99.90;;;;;;4866378;29;20029;-74
2023/05/28 12:36:38;;;;;;;9.13;5.00;;;23.00;99.90;;;;;;4864306;29;20504;-75
2023/05/28 12:39:07;;;;;;;11.45;6.10;;;23.00;99.90;;;;;;4867847;29;20161;-76
2023/05/28 12:41:32;;;;;;;14.85;6.40;;;23.10;99.90;;;;;;4900473;29;20099;-74
2023/05/28 12:43:58;;;;;;;13.80;5.82;;;23.00;99.90;;;;;;4881980;29;20185;-74
2023/05/28 12:46:25;;;;;;;9.95;5.53;;;23.20;99.90;;;;;;4881747;29;20131;-75
2023/05/28 12:48:51;;;;;;;8.20;4.78;;;23.10;99.90;;;;;;4881961;29;20615;-78
2023/05/28 12:51:16;;;;;;;9.45;5.65;;;23.20;99.90;;;;;;4881516;29;20104;-77
2023/05/28 12:53:42;;;;;;;13.05;5.65;;;23.10;99.90;;;;;;4882983;29;20029;-77